createdAt,value
2023-01-13T00:01:28.964Z,92.19
2023-01-13T00:03:57.188Z,92.12
2023-01-13T00:06:26.042Z,92.39
2023-01-13T00:08:54.637Z,92.83
2023-01-13T00:11:22.620Z,92.94
2023-01-13T00:13:50.095Z,92.96
2023-01-13T00:16:19.461Z,92.99
2023-01-13T00:18:48.408Z,93.08
2023-01-13T00:21:23.215Z,93.19
2023-01-13T00:23:54.117Z,93.42
2023-01-13T00:26:25.787Z,93.48
2023-01-13T00:28:58.628Z,93.53
2023-01-13T00:31:28.240Z,93.63
2023-01-13T00:34:01.003Z,93.64
2023-01-13T00:36:29.523Z,93.53
2023-01-13T00:38:57.947Z,93.45
2023-01-13T00:41:27.566Z,93.42
2023-01-13T00:43:55.066Z,93.29
2023-01-13T00:46:23.004Z,93.19
2023-01-13T00:48:51.571Z,93.10
2023-01-13T00:51:21.377Z,92.99
2023-01-13T00:53:51.945Z,92.80
2023-01-13T00:56:40.795Z,92.53
2023-01-13T00:59:13.708Z,92.27
2023-01-13T01:01:41.996Z,92.55
2023-01-13T01:04:09.509Z,92.84
2023-01-13T01:06:36.912Z,92.89
2023-01-13T01:09:05.572Z,92.93
2023-01-13T01:11:33.872Z,93.17
2023-01-13T01:14:03.621Z,93.24
2023-01-13T01:16:33.633Z,93.26
2023-01-13T01:19:01.959Z,93.16
2023-01-13T01:21:29.760Z,93.24
2023-01-13T01:24:02.341Z,93.35
2023-01-13T01:26:32.049Z,93.38
2023-01-13T01:28:59.859Z,93.55
2023-01-13T01:31:31.678Z,93.68
2023-01-13T01:34:01.109Z,93.77
2023-01-13T01:36:30.313Z,93.69
2023-01-13T01:38:59.580Z,93.57
2023-01-13T01:41:32.562Z,93.51
2023-01-13T01:44:43.630Z,93.37
2023-01-13T01:47:16.152Z,93.28
2023-01-13T01:49:46.532Z,93.22
2023-01-13T01:52:34.731Z,93.31
2023-01-13T01:55:10.684Z,93.41
2023-01-13T01:57:46.806Z,93.42
2023-01-13T02:00:14.899Z,93.51
2023-01-13T02:02:46.652Z,93.56
2023-01-13T02:05:14.578Z,93.49
2023-01-13T02:07:45.727Z,93.40
2023-01-13T02:10:19.451Z,93.54
2023-01-13T02:12:49.032Z,93.48
2023-01-13T02:15:27.797Z,93.41
2023-01-13T02:18:16.010Z,93.39
2023-01-13T02:21:21.164Z,93.42
2023-01-13T02:24:35.032Z,93.44
2023-01-13T02:27:36.747Z,93.51
2023-01-13T02:30:48.518Z,93.51
2023-01-13T02:33:34.355Z,93.43
2023-01-13T02:36:49.204Z,93.42
2023-01-13T02:39:30.035Z,93.40
2023-01-13T02:42:30.940Z,93.44
2023-01-13T02:45:11.217Z,93.34
2023-01-13T02:47:44.159Z,93.31
2023-01-13T02:50:18.036Z,93.33
2023-01-13T02:52:54.327Z,93.35
2023-01-13T02:55:42.877Z,93.35
2023-01-13T02:58:16.811Z,93.41
2023-01-13T03:00:46.576Z,93.44
2023-01-13T03:03:14.225Z,93.38
2023-01-13T03:05:46.311Z,93.34
2023-01-13T03:08:53.517Z,93.31
2023-01-13T03:11:21.886Z,93.24
2023-01-13T03:14:04.784Z,93.31
2023-01-13T03:16:49.300Z,93.37
2023-01-13T03:19:29.386Z,93.27
2023-01-13T03:22:19.557Z,93.09
2023-01-13T03:24:56.614Z,92.98
2023-01-13T03:27:41.696Z,92.53
2023-01-13T03:30:21.875Z,92.12
2023-01-13T03:33:01.046Z,91.88
2023-01-13T03:35:35.161Z,91.86
2023-01-13T03:38:28.317Z,91.88
2023-01-13T03:41:03.479Z,91.80
2023-01-13T03:44:00.918Z,91.88
2023-01-13T03:46:39.984Z,91.73
2023-01-13T03:49:13.229Z,91.96
2023-01-13T03:51:47.800Z,91.81
2023-01-13T03:54:20.237Z,91.69
2023-01-13T03:57:01.737Z,91.65
2023-01-13T03:59:38.780Z,91.68
2023-01-13T04:02:43.680Z,91.88
2023-01-13T04:05:11.974Z,91.93
2023-01-13T04:08:23.974Z,91.78
2023-01-13T04:11:02.438Z,91.55
2023-01-13T04:13:34.020Z,91.48
2023-01-13T04:16:01.812Z,91.88
2023-01-13T04:18:31.627Z,91.69
2023-01-13T04:21:01.881Z,91.50
2023-01-13T04:23:29.780Z,91.57
2023-01-13T04:25:57.302Z,91.52
2023-01-13T04:28:26.572Z,91.62
2023-01-13T04:30:54.259Z,91.45
2023-01-13T04:33:21.867Z,91.45
2023-01-13T04:35:49.361Z,91.61
2023-01-13T04:38:20.791Z,91.70
2023-01-13T04:40:48.767Z,91.84
2023-01-13T04:43:16.353Z,91.78
2023-01-13T04:45:44.345Z,91.85
2023-01-13T04:48:12.339Z,91.99
2023-01-13T04:50:39.953Z,92.13
2023-01-13T04:53:07.772Z,92.31
2023-01-13T04:55:35.483Z,92.47
2023-01-13T04:58:08.719Z,92.44
2023-01-13T05:00:37.373Z,92.39
2023-01-13T05:03:04.953Z,92.47
2023-01-13T05:05:32.845Z,92.70
2023-01-13T05:08:00.265Z,92.76
2023-01-13T05:10:27.751Z,92.80
2023-01-13T05:13:13.754Z,93.21
2023-01-13T05:16:01.763Z,93.35
2023-01-13T05:18:31.346Z,93.42
2023-01-13T05:20:58.691Z,93.46
2023-01-13T05:23:44.901Z,93.51
2023-01-13T05:26:12.418Z,93.60
2023-01-13T05:28:39.834Z,93.57
2023-01-13T05:31:07.314Z,93.57
2023-01-13T05:33:36.035Z,93.57
2023-01-13T05:36:03.942Z,93.66
2023-01-13T05:38:31.515Z,93.59
2023-01-13T05:41:18.715Z,93.53
2023-01-13T05:43:46.247Z,93.56
2023-01-13T05:46:14.900Z,93.52
2023-01-13T05:48:43.785Z,93.50
2023-01-13T05:51:13.065Z,93.49
2023-01-13T05:53:43.612Z,93.56
2023-01-13T05:56:11.718Z,93.46
2023-01-13T05:58:39.183Z,93.45
2023-01-13T06:01:09.079Z,93.53
2023-01-13T06:03:37.647Z,93.51
2023-01-13T06:06:05.354Z,93.47
2023-01-13T06:08:33.070Z,93.47
2023-01-13T06:11:00.544Z,93.52
2023-01-13T06:13:28.044Z,93.55
2023-01-13T06:15:58.121Z,93.58
2023-01-13T06:18:26.591Z,93.46
2023-01-13T06:20:54.297Z,93.56
2023-01-13T06:23:21.688Z,93.59
2023-01-13T06:26:17.511Z,93.53
2023-01-13T06:28:44.875Z,93.33
2023-01-13T06:31:12.751Z,92.95
2023-01-13T06:33:49.333Z,92.59
2023-01-13T06:36:29.318Z,92.16
2023-01-13T06:39:01.306Z,91.78
2023-01-13T06:41:50.634Z,91.41
2023-01-13T06:44:20.504Z,90.83
2023-01-13T06:46:48.097Z,90.37
2023-01-13T06:49:15.543Z,89.70
2023-01-13T06:51:43.129Z,88.90
2023-01-13T06:54:10.419Z,88.42
2023-01-13T06:56:37.754Z,87.15
2023-01-13T06:59:05.253Z,85.75
2023-01-13T07:01:32.848Z,85.01
2023-01-13T07:04:00.371Z,83.34
2023-01-13T07:06:27.795Z,81.31
2023-01-13T07:08:55.230Z,78.23
2023-01-13T07:11:22.991Z,76.71
2023-01-13T07:14:09.342Z,73.58
2023-01-13T07:16:36.918Z,70.68
2023-01-13T07:19:04.530Z,70.77
2023-01-13T07:21:32.062Z,68.42
2023-01-13T07:23:59.579Z,67.80
2023-01-13T07:26:26.961Z,66.12
2023-01-13T07:28:54.531Z,65.86
2023-01-13T07:31:22.196Z,66.90
2023-01-13T07:33:49.600Z,66.68
2023-01-13T07:36:17.082Z,68.01
2023-01-13T07:38:44.759Z,66.47
2023-01-13T07:41:33.226Z,66.09
2023-01-13T07:44:04.773Z,63.85
2023-01-13T07:46:33.336Z,64.22
2023-01-13T07:49:00.842Z,63.58
2023-01-13T07:51:28.516Z,65.47
2023-01-13T07:53:55.958Z,65.27
2023-01-13T07:56:23.388Z,66.53
2023-01-13T07:58:54.098Z,65.77
2023-01-13T08:01:21.822Z,64.79
2023-01-13T08:03:49.285Z,64.22
2023-01-13T08:06:16.678Z,63.20
2023-01-13T08:08:44.344Z,63.48
2023-01-13T08:11:11.779Z,62.88
2023-01-13T08:13:39.260Z,61.15
2023-01-13T08:16:11.698Z,62.99
2023-01-13T08:18:40.143Z,63.00
2023-01-13T08:21:13.964Z,63.07
2023-01-13T08:23:45.690Z,62.95
2023-01-13T08:26:17.269Z,62.87
2023-01-13T08:28:45.918Z,62.92
2023-01-13T08:31:17.093Z,61.18
2023-01-13T08:33:44.779Z,60.72
2023-01-13T08:36:12.849Z,61.75
2023-01-13T08:38:41.702Z,58.14
2023-01-13T08:41:16.103Z,57.90
2023-01-13T08:43:43.523Z,56.27
2023-01-13T08:46:11.547Z,58.53
2023-01-13T08:48:39.090Z,58.47
2023-01-13T08:51:09.520Z,57.32
2023-01-13T08:53:37.030Z,56.30
2023-01-13T08:56:13.190Z,57.31
2023-01-13T08:58:41.040Z,56.63
2023-01-13T09:01:11.330Z,56.71
2023-01-13T09:03:39.366Z,55.54
2023-01-13T09:06:07.173Z,54.08
2023-01-13T09:08:34.846Z,55.25
2023-01-13T09:11:22.473Z,55.58
2023-01-13T09:13:52.226Z,53.83
2023-01-13T09:16:19.623Z,56.49
2023-01-13T09:18:47.034Z,54.82
2023-01-13T09:21:15.164Z,56.68
2023-01-13T09:23:42.587Z,54.20
2023-01-13T09:26:11.581Z,54.93
2023-01-13T09:28:38.948Z,54.48
2023-01-13T09:31:06.384Z,54.21
2023-01-13T09:33:52.370Z,54.56
2023-01-13T09:36:21.391Z,53.93
2023-01-13T09:38:51.630Z,52.64
2023-01-13T09:41:41.329Z,51.78
2023-01-13T09:44:50.615Z,50.43
2023-01-13T09:47:30.673Z,53.81
2023-01-13T09:50:27.875Z,53.21
2023-01-13T09:52:55.875Z,51.75
2023-01-13T09:55:33.937Z,50.79
2023-01-13T09:58:08.758Z,52.39
2023-01-13T10:01:04.323Z,53.48
2023-01-13T10:03:33.756Z,52.97
2023-01-13T10:06:19.723Z,54.27
2023-01-13T10:08:49.262Z,52.45
2023-01-13T10:11:42.753Z,53.28
2023-01-13T10:14:28.231Z,51.11
2023-01-13T10:17:07.702Z,50.65
2023-01-13T10:19:50.582Z,52.30
2023-01-13T10:22:30.246Z,53.26
2023-01-13T10:25:21.904Z,50.90
2023-01-13T10:27:52.852Z,52.11
2023-01-13T10:30:32.126Z,52.08
2023-01-13T10:33:06.356Z,53.45
2023-01-13T10:36:13.259Z,54.03
2023-01-13T10:38:44.525Z,53.57
2023-01-13T10:41:14.841Z,52.07
2023-01-13T10:44:15.494Z,54.17
2023-01-13T10:46:58.844Z,54.72
2023-01-13T10:49:33.830Z,53.95
2023-01-13T10:52:03.319Z,53.35
2023-01-13T10:54:31.133Z,55.69
2023-01-13T10:57:21.000Z,53.81
2023-01-13T10:59:50.976Z,56.10
2023-01-13T11:02:31.775Z,56.56
2023-01-13T11:05:21.047Z,56.75
2023-01-13T11:07:54.324Z,58.63
2023-01-13T11:10:27.350Z,58.44
2023-01-13T11:14:01.511Z,58.53
2023-01-13T11:16:29.200Z,59.15
2023-01-13T11:19:13.803Z,60.20
2023-01-13T11:22:06.972Z,59.96
2023-01-13T11:24:54.998Z,59.42
2023-01-13T11:27:36.354Z,57.90
2023-01-13T11:30:50.845Z,57.40
2023-01-13T11:33:35.890Z,58.12
2023-01-13T11:36:21.278Z,57.37
2023-01-13T11:38:56.042Z,58.09
2023-01-13T11:42:24.241Z,61.92
2023-01-13T11:45:20.018Z,62.08
2023-01-13T11:47:52.571Z,63.63
2023-01-13T11:50:28.850Z,64.91
2023-01-13T11:53:24.962Z,64.62
2023-01-13T11:56:13.735Z,64.70
2023-01-13T11:59:11.143Z,63.30
2023-01-13T12:02:05.881Z,63.13
2023-01-13T12:04:58.110Z,62.99
2023-01-13T12:07:55.351Z,63.05
2023-01-13T12:10:31.523Z,63.43
2023-01-13T12:13:58.265Z,63.58
2023-01-13T12:16:30.486Z,62.73
2023-01-13T12:19:16.198Z,63.15
2023-01-13T12:22:13.449Z,62.41
2023-01-13T12:25:00.166Z,61.97
2023-01-13T12:27:33.242Z,62.66
2023-01-13T12:30:13.143Z,62.59
2023-01-13T12:32:41.755Z,63.36
2023-01-13T12:35:31.729Z,63.62
2023-01-13T12:38:32.857Z,63.92
2023-01-13T12:41:18.962Z,64.54
2023-01-13T12:44:07.971Z,63.92
2023-01-13T12:46:53.459Z,63.30
2023-01-13T12:49:30.918Z,63.33
2023-01-13T12:51:58.285Z,63.26
2023-01-13T12:54:37.667Z,63.67
2023-01-13T12:57:28.398Z,64.26
2023-01-13T13:00:05.015Z,63.97
2023-01-13T13:02:42.576Z,63.50
2023-01-13T13:05:25.364Z,64.01
2023-01-13T13:08:20.061Z,63.48
2023-01-13T13:10:59.216Z,63.93
2023-01-13T13:13:48.218Z,64.73
2023-01-13T13:16:29.110Z,63.72
2023-01-13T13:19:18.570Z,63.68
2023-01-13T13:22:14.436Z,63.62
2023-01-13T13:24:48.486Z,63.96
2023-01-13T13:27:40.979Z,64.06
2023-01-13T13:30:21.842Z,64.01
2023-01-13T13:32:57.933Z,64.14
2023-01-13T13:35:40.211Z,63.96
2023-01-13T13:38:59.260Z,63.48
2023-01-13T13:41:46.168Z,63.87
2023-01-13T13:44:38.901Z,64.62
2023-01-13T13:47:07.362Z,64.11
2023-01-13T13:49:44.870Z,64.51
2023-01-13T13:52:29.684Z,64.12
2023-01-13T13:55:08.419Z,64.23
2023-01-13T13:57:40.064Z,64.84
2023-01-13T14:00:19.785Z,68.17
2023-01-13T14:02:52.951Z,69.48
2023-01-13T14:05:30.214Z,69.87
2023-01-13T14:08:09.579Z,70.21
2023-01-13T14:10:40.826Z,70.67
2023-01-13T14:13:18.751Z,71.39
2023-01-13T14:15:49.313Z,71.84
2023-01-13T14:18:20.980Z,72.19
2023-01-13T14:20:59.524Z,72.52
2023-01-13T14:23:33.340Z,72.49
2023-01-13T14:26:13.211Z,73.07
2023-01-13T14:28:42.030Z,73.42
2023-01-13T14:31:10.584Z,73.72
2023-01-13T14:33:44.604Z,74.14
2023-01-13T14:36:24.656Z,74.34
2023-01-13T14:39:04.120Z,74.79
2023-01-13T14:41:42.249Z,75.10
2023-01-13T14:44:12.371Z,75.45
2023-01-13T14:46:45.901Z,75.70
2023-01-13T14:49:30.891Z,75.80
2023-01-13T14:52:20.129Z,76.34
2023-01-13T14:54:50.606Z,76.39
2023-01-13T14:57:31.399Z,77.02
2023-01-13T15:00:13.711Z,77.51
2023-01-13T15:02:53.482Z,77.86
2023-01-13T15:05:22.521Z,78.47
2023-01-13T15:08:05.244Z,79.00
2023-01-13T15:10:42.094Z,79.13
2023-01-13T15:13:29.796Z,79.97
2023-01-13T15:16:01.256Z,80.46
2023-01-13T15:18:28.713Z,80.50
2023-01-13T15:20:56.138Z,81.26
2023-01-13T15:23:23.982Z,81.76
2023-01-13T15:25:51.363Z,81.93
2023-01-13T15:28:25.348Z,82.45
2023-01-13T15:30:55.718Z,82.91
2023-01-13T15:33:23.314Z,83.55
2023-01-13T15:35:53.924Z,83.67
2023-01-13T15:38:24.611Z,83.64
2023-01-13T15:40:52.942Z,83.59
2023-01-13T15:43:41.965Z,83.36
2023-01-13T15:46:34.402Z,83.92
2023-01-13T15:49:25.232Z,84.83
2023-01-13T15:51:52.807Z,85.10
2023-01-13T15:54:23.060Z,85.53
2023-01-13T15:56:51.788Z,86.33
2023-01-13T15:59:24.133Z,86.30
2023-01-13T16:01:51.818Z,86.17
2023-01-13T16:04:19.305Z,86.06
2023-01-13T16:06:47.613Z,86.14
2023-01-13T16:09:16.922Z,87.23
2023-01-13T16:11:44.415Z,86.97
2023-01-13T16:14:11.856Z,86.36
2023-01-13T16:16:39.352Z,85.96
2023-01-13T16:19:06.766Z,85.76
2023-01-13T16:21:35.288Z,85.88
2023-01-13T16:24:02.681Z,86.55
2023-01-13T16:26:30.282Z,86.35
2023-01-13T16:28:58.471Z,86.05
2023-01-13T16:31:32.157Z,85.87
2023-01-13T16:34:03.952Z,85.93
2023-01-13T16:36:35.965Z,85.90
2023-01-13T16:39:04.881Z,85.89
2023-01-13T16:41:34.038Z,86.09
2023-01-13T16:44:05.987Z,86.07
2023-01-13T16:46:33.886Z,85.76
2023-01-13T16:49:06.798Z,85.65
2023-01-13T16:51:34.144Z,85.25
2023-01-13T16:54:01.574Z,85.12
2023-01-13T16:56:32.588Z,85.16
2023-01-13T16:59:07.523Z,86.13
2023-01-13T17:01:38.728Z,85.74
2023-01-13T17:04:12.284Z,85.16
2023-01-13T17:06:52.441Z,84.72
2023-01-13T17:09:26.534Z,84.40
2023-01-13T17:11:55.177Z,84.33
2023-01-13T17:14:23.668Z,84.48
2023-01-13T17:16:57.148Z,84.26
2023-01-13T17:19:27.456Z,84.24
2023-01-13T17:21:54.920Z,84.34
2023-01-13T17:24:24.854Z,84.37
2023-01-13T17:26:52.347Z,85.45
2023-01-13T17:29:25.300Z,84.81
2023-01-13T17:31:53.105Z,85.20
2023-01-13T17:34:21.572Z,85.09
2023-01-13T17:36:49.071Z,86.27
2023-01-13T17:39:20.991Z,87.07
2023-01-13T17:41:48.621Z,87.06
2023-01-13T17:44:21.765Z,87.19
2023-01-13T17:46:49.940Z,87.34
2023-01-13T17:49:21.759Z,87.48
2023-01-13T17:51:51.144Z,87.50
2023-01-13T17:54:19.451Z,87.75
2023-01-13T17:56:46.987Z,87.71
2023-01-13T17:59:18.057Z,87.68
2023-01-13T18:01:46.358Z,87.65
2023-01-13T18:04:19.883Z,87.46
2023-01-13T18:06:48.479Z,87.43
2023-01-13T18:09:16.572Z,87.21
2023-01-13T18:11:45.586Z,87.09
2023-01-13T18:14:14.439Z,86.92
2023-01-13T18:16:42.268Z,87.10
2023-01-13T18:19:29.563Z,87.15
2023-01-13T18:22:15.381Z,87.25
2023-01-13T18:25:01.279Z,87.03
2023-01-13T18:27:36.329Z,86.94
2023-01-13T18:30:05.090Z,87.06
2023-01-13T18:32:34.348Z,86.93
2023-01-13T18:35:06.656Z,86.79
2023-01-13T18:37:38.528Z,86.63
2023-01-13T18:40:09.416Z,86.69
2023-01-13T18:42:56.054Z,86.48
2023-01-13T18:45:27.662Z,86.51
2023-01-13T18:47:59.056Z,86.33
2023-01-13T18:50:28.251Z,86.65
2023-01-13T18:52:56.633Z,86.63
2023-01-13T18:55:24.675Z,86.61
2023-01-13T18:57:53.193Z,86.76
2023-01-13T19:00:22.465Z,86.97
2023-01-13T19:05:35.909Z,86.89
2023-01-13T19:08:04.859Z,86.81
2023-01-13T19:10:32.812Z,87.02
2023-01-13T19:13:01.628Z,87.14
2023-01-13T19:15:29.130Z,87.29
2023-01-13T19:17:56.667Z,87.35
2023-01-13T19:20:24.200Z,87.29
2023-01-13T19:22:54.471Z,87.29
2023-01-13T19:25:22.235Z,87.29
2023-01-13T19:27:49.622Z,87.35
2023-01-13T19:30:17.483Z,87.35
2023-01-13T19:32:44.847Z,87.18
2023-01-13T19:35:17.372Z,87.17
2023-01-13T19:37:44.791Z,87.41
2023-01-13T19:40:15.897Z,87.61
2023-01-13T19:43:02.877Z,87.66
2023-01-13T19:45:33.592Z,87.90
2023-01-13T19:48:05.811Z,88.09
2023-01-13T19:50:41.358Z,88.23
2023-01-13T19:53:17.614Z,88.43
2023-01-13T19:55:49.253Z,88.46
2023-01-13T19:58:23.083Z,88.54
2023-01-13T20:00:52.307Z,88.67
2023-01-13T20:03:24.438Z,88.77
2023-01-13T20:05:53.433Z,88.89
2023-01-13T20:08:22.759Z,88.88
2023-01-13T20:10:50.226Z,88.82
2023-01-13T20:13:17.653Z,88.74
2023-01-13T20:15:45.189Z,88.81
2023-01-13T20:18:12.721Z,88.87
2023-01-13T20:20:40.143Z,88.91
2023-01-13T20:23:07.504Z,88.95
2023-01-13T20:25:35.014Z,88.97
2023-01-13T20:28:02.601Z,88.90
2023-01-13T20:30:29.971Z,88.72
2023-01-13T20:32:57.396Z,88.55
2023-01-13T20:35:29.554Z,88.49
2023-01-13T20:37:57.265Z,88.60
2023-01-13T20:40:24.721Z,88.53
2023-01-13T20:42:52.669Z,88.46
2023-01-13T20:45:23.503Z,88.23
2023-01-13T20:47:50.993Z,88.20
2023-01-13T20:50:18.553Z,88.32
2023-01-13T20:52:46.956Z,88.25
2023-01-13T20:55:14.931Z,88.24
2023-01-13T20:57:42.404Z,88.18
2023-01-13T21:00:10.946Z,88.12
2023-01-13T21:02:40.473Z,88.08
2023-01-13T21:05:08.798Z,88.07
2023-01-13T21:07:36.230Z,88.10
2023-01-13T21:10:04.512Z,88.14
2023-01-13T21:13:07.019Z,88.10
2023-01-13T21:15:34.886Z,88.31
2023-01-13T21:18:21.136Z,88.27
2023-01-13T21:20:50.797Z,88.24
2023-01-13T21:23:18.299Z,88.18
2023-01-13T21:25:45.650Z,88.14
2023-01-13T21:28:14.015Z,88.04
2023-01-13T21:30:41.566Z,88.00
2023-01-13T21:33:14.083Z,87.95
2023-01-13T21:35:41.477Z,87.94
2023-01-13T21:38:11.131Z,88.07
2023-01-13T21:40:38.494Z,88.11
2023-01-13T21:43:24.380Z,88.15
2023-01-13T21:46:10.480Z,88.26
2023-01-13T21:48:37.923Z,88.35
2023-01-13T21:51:05.544Z,88.41
2023-01-13T21:53:32.954Z,88.39
2023-01-13T21:56:00.303Z,88.45
2023-01-13T21:58:27.666Z,88.67
2023-01-13T22:00:55.220Z,88.85
2023-01-13T22:03:22.695Z,89.00
2023-01-13T22:05:56.477Z,89.19
2023-01-13T22:08:23.919Z,89.25
2023-01-13T22:10:57.361Z,89.36
2023-01-13T22:13:46.240Z,89.47
2023-01-13T22:16:15.677Z,89.54
2023-01-13T22:18:43.203Z,89.71
2023-01-13T22:21:11.159Z,89.81
2023-01-13T22:23:38.629Z,89.93
2023-01-13T22:26:07.759Z,89.90
2023-01-13T22:28:44.737Z,89.93
2023-01-13T22:31:21.062Z,89.98
2023-01-13T22:33:48.569Z,90.06
2023-01-13T22:36:15.947Z,90.08
2023-01-13T22:38:43.446Z,90.07
2023-01-13T22:41:11.039Z,90.03
2023-01-13T22:43:38.726Z,89.90
2023-01-13T22:46:10.836Z,89.86
2023-01-13T22:48:40.215Z,89.83
2023-01-13T22:51:14.458Z,89.85
2023-01-13T22:53:42.857Z,89.79
2023-01-13T22:56:18.600Z,89.74
2023-01-13T22:58:46.243Z,89.70
2023-01-13T23:01:17.188Z,89.63
2023-01-13T23:03:47.877Z,89.61
2023-01-13T23:06:18.240Z,89.52
2023-01-13T23:08:47.299Z,89.50
2023-01-13T23:11:18.409Z,89.52
2023-01-13T23:13:46.573Z,89.58
2023-01-13T23:16:19.369Z,89.54
2023-01-13T23:18:48.587Z,89.50
2023-01-13T23:21:29.620Z,89.56
2023-01-13T23:23:58.778Z,89.49
2023-01-13T23:26:28.471Z,89.40
2023-01-13T23:29:08.930Z,89.41
2023-01-13T23:31:36.399Z,89.38
2023-01-13T23:34:03.822Z,89.41
2023-01-13T23:36:31.393Z,89.41
2023-01-13T23:38:59.960Z,89.41
2023-01-13T23:41:28.089Z,89.36
2023-01-13T23:43:59.616Z,89.51
2023-01-13T23:46:30.197Z,89.57
2023-01-13T23:48:57.732Z,89.44
2023-01-13T23:51:26.512Z,89.38
2023-01-13T23:53:54.579Z,89.37
2023-01-13T23:56:31.078Z,89.35
2023-01-13T23:58:59.251Z,89.37
